Time;durP1;ratioP1;P1;durP2;ratioP2;P2;SDS_P1;SDS_P2;PMS_P1;PMS_P2;Temp;Humidity;BMP_temperature;BMP_pressure;BME280_temperature;BME280_humidity;BME280_pressure;Samples;Min_cycle;Max_cycle;Signal;HPM_P1;HPM_P2
2024/03/18 00:00:53;;;;;;;14.30;9.38;;;;;;;;;;5033666;28;20486;-59
2024/03/18 00:03:20;;;;;;;14.93;10.15;;;;;;;;;;5032703;28;20054;-59
2024/03/18 00:05:48;;;;;;;14.77;10.13;;;;;;;;;;5032939;28;20060;-60
2024/03/18 00:08:15;;;;;;;14.75;10.52;;;;;;;;;;5033154;28;20057;-58
2024/03/18 00:10:42;;;;;;;11.77;8.70;;;;;;;;;;5033904;28;20054;-59
2024/03/18 00:13:09;;;;;;;10.75;8.55;;;;;;;;;;5033935;28;20060;-59
2024/03/18 00:15:35;;;;;;;10.75;8.48;;;;;;;;;;5049330;28;20052;-59
2024/03/18 00:18:03;;;;;;;13.02;10.43;;;;;;;;;;5048034;28;20060;-59
2024/03/18 00:20:30;;;;;;;11.00;8.90;;;;;;;;;;5039459;28;20052;-59
2024/03/18 00:22:58;;;;;;;11.93;9.07;;;;;;;;;;5048551;28;20053;-59
2024/03/18 00:25:25;;;;;;;12.98;8.63;;;;;;;;;;5066725;28;20053;-59
2024/03/18 00:27:52;;;;;;;12.20;9.45;;;;;;;;;;5063996;28;20140;-59
2024/03/18 00:30:19;;;;;;;13.18;9.20;;;;;;;;;;5052196;28;20061;-59
2024/03/18 00:32:45;;;;;;;11.60;9.48;;;;;;;;;;5036650;28;20053;-58
2024/03/18 00:35:13;;;;;;;12.75;9.30;;;;;;;;;;5034749;28;20049;-58
2024/03/18 00:37:40;;;;;;;10.63;8.98;;;;;;;;;;5042581;28;20050;-59
2024/03/18 00:40:10;;;;;;;12.85;9.85;;;;;;;;;;5048961;28;20057;-59
2024/03/18 00:42:36;;;;;;;11.63;8.82;;;;;;;;;;5050767;28;20060;-58
2024/03/18 00:45:04;;;;;;;11.27;8.20;;;;;;;;;;5051971;28;20048;-58
2024/03/18 00:47:31;;;;;;;13.35;8.95;;;;;;;;;;5055709;28;20052;-58
2024/03/18 00:49:59;;;;;;;11.23;8.93;;;;;;;;;;5064103;28;20064;-58
2024/03/18 00:52:25;;;;;;;11.95;8.93;;;;;;;;;;5051584;28;20060;-58
2024/03/18 00:54:52;;;;;;;12.32;9.45;;;;;;;;;;5055004;28;20094;-58
2024/03/18 00:57:21;;;;;;;11.63;8.60;;;;;;;;;;5072128;28;20535;-59
2024/03/18 00:59:48;;;;;;;12.60;9.45;;;;;;;;;;5072308;28;20063;-58
2024/03/18 01:02:14;;;;;;;11.57;8.65;;;;;;;;;;5072291;28;20056;-58
2024/03/18 01:04:41;;;;;;;11.65;9.48;;;;;;;;;;5071906;28;20063;-58
2024/03/18 01:07:08;;;;;;;11.98;9.25;;;;;;;;;;5072207;28;20063;-59
2024/03/18 01:09:36;;;;;;;12.50;9.07;;;;;;;;;;5059532;28;20045;-59
2024/03/18 01:12:03;;;;;;;12.98;10.20;;;;;;;;;;5051703;28;20057;-59
2024/03/18 01:14:31;;;;;;;12.20;8.65;;;;;;;;;;5052129;28;20059;-59
2024/03/18 01:16:58;;;;;;;11.10;9.30;;;;;;;;;;5052117;28;20369;-58
2024/03/18 01:19:24;;;;;;;12.73;9.82;;;;;;;;;;5051924;28;20064;-59
2024/03/18 01:21:51;;;;;;;12.68;9.93;;;;;;;;;;5051489;28;20475;-59
2024/03/18 01:24:18;;;;;;;12.13;9.80;;;;;;;;;;5050509;28;20054;-59
2024/03/18 01:26:45;;;;;;;13.43;9.90;;;;;;;;;;5036483;28;20049;-59
2024/03/18 01:29:11;;;;;;;13.10;10.30;;;;;;;;;;5035927;28;20514;-59
2024/03/18 01:31:40;;;;;;;14.63;9.85;;;;;;;;;;5040072;28;20041;-59
2024/03/18 01:34:09;;;;;;;13.93;10.27;;;;;;;;;;5055796;28;20063;-58
2024/03/18 01:36:36;;;;;;;13.73;10.35;;;;;;;;;;5055425;28;20478;-59
2024/03/18 01:39:04;;;;;;;13.93;10.43;;;;;;;;;;5052978;28;20402;-59
2024/03/18 01:41:30;;;;;;;13.45;10.75;;;;;;;;;;5046468;28;20049;-58
2024/03/18 01:43:57;;;;;;;13.60;10.93;;;;;;;;;;5042953;28;20050;-59
2024/03/18 01:46:24;;;;;;;14.30;11.20;;;;;;;;;;5051955;28;20048;-59
2024/03/18 01:48:52;;;;;;;15.77;12.10;;;;;;;;;;5069782;28;20055;-59
2024/03/18 01:51:19;;;;;;;16.30;11.80;;;;;;;;;;5075277;28;20132;-59
2024/03/18 01:53:46;;;;;;;16.05;12.07;;;;;;;;;;5059361;28;20052;-59
2024/03/18 01:56:14;;;;;;;15.02;11.75;;;;;;;;;;5040899;28;20054;-58
2024/03/18 01:58:42;;;;;;;16.45;11.90;;;;;;;;;;5052735;28;20057;-58
2024/03/18 02:01:09;;;;;;;16.15;11.32;;;;;;;;;;5040571;28;20368;-59
2024/03/18 02:03:36;;;;;;;14.75;11.77;;;;;;;;;;5034897;28;20064;-59
2024/03/18 02:06:06;;;;;;;15.30;11.55;;;;;;;;;;5035071;28;20053;-59
2024/03/18 02:08:33;;;;;;;15.75;11.77;;;;;;;;;;5035371;28;20061;-58
2024/03/18 02:11:00;;;;;;;14.25;10.55;;;;;;;;;;5038320;28;20419;-59
2024/03/18 02:13:27;;;;;;;14.77;11.48;;;;;;;;;;5034921;28;20049;-59
2024/03/18 02:15:54;;;;;;;17.42;12.27;;;;;;;;;;5034988;28;20065;-59
2024/03/18 02:18:20;;;;;;;15.70;11.93;;;;;;;;;;5035579;28;20061;-59
2024/03/18 02:20:47;;;;;;;15.18;12.00;;;;;;;;;;5034622;28;20053;-58
2024/03/18 02:23:15;;;;;;;14.18;11.55;;;;;;;;;;5034932;28;20049;-59
2024/03/18 02:25:42;;;;;;;17.75;12.88;;;;;;;;;;5036720;28;20411;-59
2024/03/18 02:28:10;;;;;;;19.17;13.57;;;;;;;;;;5045593;28;20053;-60
2024/03/18 02:30:37;;;;;;;17.45;13.13;;;;;;;;;;5054342;28;20056;-59
2024/03/18 02:33:04;;;;;;;17.67;12.88;;;;;;;;;;5054739;28;20064;-58
2024/03/18 02:35:31;;;;;;;17.00;12.75;;;;;;;;;;5040180;28;20435;-59
2024/03/18 02:37:58;;;;;;;16.70;12.38;;;;;;;;;;5054743;28;20470;-59
2024/03/18 02:40:26;;;;;;;18.17;13.73;;;;;;;;;;5051355;28;20052;-59
2024/03/18 02:42:53;;;;;;;16.80;12.98;;;;;;;;;;5048369;28;20049;-59
2024/03/18 02:45:20;;;;;;;17.95;14.35;;;;;;;;;;5054250;28;20509;-59
2024/03/18 02:47:47;;;;;;;18.25;13.38;;;;;;;;;;5050316;28;20065;-58
2024/03/18 02:50:17;;;;;;;16.55;12.95;;;;;;;;;;5041748;28;20049;-58
2024/03/18 02:52:44;;;;;;;17.95;13.15;;;;;;;;;;5043338;28;20046;-57
2024/03/18 02:55:11;;;;;;;14.57;11.07;;;;;;;;;;5045159;28;20060;-60
2024/03/18 02:57:39;;;;;;;17.40;12.52;;;;;;;;;;5049644;28;20056;-59
2024/03/18 03:00:06;;;;;;;15.38;11.85;;;;;;;;;;5042764;28;20063;-59
2024/03/18 03:02:33;;;;;;;16.73;12.20;;;;;;;;;;5053889;28;20056;-59
2024/03/18 03:05:00;;;;;;;17.45;11.55;;;;;;;;;;5040966;28;20057;-59
2024/03/18 03:07:27;;;;;;;16.38;11.88;;;;;;;;;;5034103;28;20406;-58
2024/03/18 03:09:53;;;;;;;18.30;12.98;;;;;;;;;;5034303;28;20060;-59
2024/03/18 03:12:20;;;;;;;15.85;12.05;;;;;;;;;;5047090;28;20048;-59
2024/03/18 03:14:48;;;;;;;16.20;12.02;;;;;;;;;;5053425;28;20052;-59
2024/03/18 03:17:16;;;;;;;17.27;12.40;;;;;;;;;;5053670;28;20513;-59
2024/03/18 03:19:43;;;;;;;17.83;13.20;;;;;;;;;;5053191;28;20056;-59
2024/03/18 03:22:11;;;;;;;17.58;12.35;;;;;;;;;;5053501;28;20398;-59
2024/03/18 03:24:37;;;;;;;16.52;12.95;;;;;;;;;;5050466;28;20064;-59
2024/03/18 03:27:05;;;;;;;18.33;12.77;;;;;;;;;;5034886;28;20057;-59
2024/03/18 03:29:31;;;;;;;18.35;11.30;;;;;;;;;;5033736;28;20057;-59
2024/03/18 03:31:59;;;;;;;19.70;13.55;;;;;;;;;;5033496;28;20050;-59
2024/03/18 03:34:26;;;;;;;16.42;12.52;;;;;;;;;;5033592;28;20152;-59
2024/03/18 03:36:54;;;;;;;15.60;12.07;;;;;;;;;;5049995;28;20053;-59
2024/03/18 03:39:22;;;;;;;18.95;13.07;;;;;;;;;;5053005;28;20052;-60
2024/03/18 03:41:49;;;;;;;19.92;13.02;;;;;;;;;;5047677;28;20048;-59
2024/03/18 03:44:15;;;;;;;17.92;13.90;;;;;;;;;;5033090;28;20058;-59
2024/03/18 03:46:42;;;;;;;18.20;13.05;;;;;;;;;;5032702;28;20375;-59
2024/03/18 03:49:10;;;;;;;16.52;12.25;;;;;;;;;;5050057;28;20164;-59
2024/03/18 03:51:38;;;;;;;19.80;13.27;;;;;;;;;;5053390;28;20053;-59
2024/03/18 03:54:05;;;;;;;16.02;12.02;;;;;;;;;;5068986;28;20425;-59
2024/03/18 03:56:31;;;;;;;20.17;13.45;;;;;;;;;;5071272;28;20061;-59
2024/03/18 03:58:58;;;;;;;17.40;12.75;;;;;;;;;;5053783;28;20215;-58
2024/03/18 04:01:25;;;;;;;18.48;13.02;;;;;;;;;;5053026;28;20052;-59
2024/03/18 04:03:51;;;;;;;15.75;12.30;;;;;;;;;;5058109;28;20048;-59
2024/03/18 04:06:20;;;;;;;18.52;13.48;;;;;;;;;;5073005;28;20060;-59
2024/03/18 04:08:46;;;;;;;18.27;13.23;;;;;;;;;;5072776;28;20063;-59
2024/03/18 04:11:13;;;;;;;17.75;13.48;;;;;;;;;;5072587;28;20064;-59
2024/03/18 04:13:41;;;;;;;17.92;13.48;;;;;;;;;;5071419;28;20048;-61
2024/03/18 04:16:08;;;;;;;17.02;12.27;;;;;;;;;;5066421;28;20056;-59
2024/03/18 04:18:36;;;;;;;18.30;12.93;;;;;;;;;;5052363;28;20057;-58
2024/03/18 04:21:03;;;;;;;17.73;12.80;;;;;;;;;;5052636;28;20063;-61
2024/03/18 04:23:32;;;;;;;16.98;12.73;;;;;;;;;;5052450;28;20052;-61
2024/03/18 04:26:00;;;;;;;16.85;10.82;;;;;;;;;;5052183;28;20049;-61
2024/03/18 04:28:27;;;;;;;16.52;11.68;;;;;;;;;;5053591;28;20057;-61
2024/03/18 04:30:54;;;;;;;13.90;10.68;;;;;;;;;;5052772;28;20049;-61
2024/03/18 04:33:21;;;;;;;16.45;11.80;;;;;;;;;;5053087;28;20056;-59
2024/03/18 04:35:47;;;;;;;15.50;12.32;;;;;;;;;;5052536;28;20059;-59
2024/03/18 04:38:14;;;;;;;14.48;11.30;;;;;;;;;;5052404;28;20428;-59
2024/03/18 04:40:42;;;;;;;14.82;10.88;;;;;;;;;;5052764;28;20060;-60
2024/03/18 04:43:09;;;;;;;16.63;11.65;;;;;;;;;;5054039;28;20052;-60
2024/03/18 04:45:36;;;;;;;13.25;10.85;;;;;;;;;;5052426;28;20402;-59
2024/03/18 04:48:04;;;;;;;14.30;10.75;;;;;;;;;;5044243;28;20414;-60
2024/03/18 04:50:31;;;;;;;11.43;8.63;;;;;;;;;;5032926;28;20057;-60
2024/03/18 04:52:58;;;;;;;13.82;10.35;;;;;;;;;;5039314;28;20426;-60
2024/03/18 04:55:26;;;;;;;11.95;8.07;;;;;;;;;;5052116;28;20422;-60
2024/03/18 04:57:55;;;;;;;10.52;7.75;;;;;;;;;;5046672;28;20483;-60
2024/03/18 05:00:24;;;;;;;7.90;6.75;;;;;;;;;;5035091;28;20493;-60
2024/03/18 05:02:51;;;;;;;10.23;8.13;;;;;;;;;;5041887;28;20044;-60
2024/03/18 05:05:18;;;;;;;10.38;8.77;;;;;;;;;;5056045;28;20056;-60
2024/03/18 05:07:44;;;;;;;10.50;8.15;;;;;;;;;;5045103;28;20065;-60
2024/03/18 05:10:12;;;;;;;10.57;8.18;;;;;;;;;;5037976;28;20399;-60
2024/03/18 05:12:39;;;;;;;10.02;7.45;;;;;;;;;;5042130;28;20068;-60
2024/03/18 05:15:08;;;;;;;10.70;7.78;;;;;;;;;;5056274;28;20064;-60
2024/03/18 05:17:35;;;;;;;11.38;9.02;;;;;;;;;;5055760;28;20504;-60
2024/03/18 05:20:03;;;;;;;13.77;9.52;;;;;;;;;;5055534;28;20498;-59
2024/03/18 05:22:32;;;;;;;12.82;8.63;;;;;;;;;;5055922;28;20478;-60
2024/03/18 05:25:05;;;;;;;10.98;8.70;;;;;;;;;;5042910;28;20065;-59
2024/03/18 05:27:32;;;;;;;9.25;7.15;;;;;;;;;;5037173;28;20049;-59
2024/03/18 05:29:58;;;;;;;12.98;9.68;;;;;;;;;;5035492;28;20057;-60
2024/03/18 05:32:27;;;;;;;7.38;5.93;;;;;;;;;;5049409;28;20398;-59
2024/03/18 05:34:54;;;;;;;10.38;8.00;;;;;;;;;;5055795;28;20218;-59
2024/03/18 05:37:20;;;;;;;9.50;7.63;;;;;;;;;;5055299;28;20053;-59
2024/03/18 05:39:47;;;;;;;7.80;6.45;;;;;;;;;;5055676;28;20064;-59
2024/03/18 05:42:14;;;;;;;9.15;7.53;;;;;;;;;;5051316;28;20059;-59
2024/03/18 05:44:41;;;;;;;9.95;8.55;;;;;;;;;;5035623;28;20053;-60
2024/03/18 05:47:08;;;;;;;11.80;8.63;;;;;;;;;;5035469;28;20056;-59
2024/03/18 05:49:36;;;;;;;10.77;7.93;;;;;;;;;;5056200;28;20068;-59
2024/03/18 05:52:03;;;;;;;12.25;8.77;;;;;;;;;;5068247;28;20056;-59
2024/03/18 05:54:30;;;;;;;12.00;9.18;;;;;;;;;;5074693;28;20048;-59
2024/03/18 05:56:57;;;;;;;9.30;7.50;;;;;;;;;;5075355;28;20056;-61
2024/03/18 05:59:24;;;;;;;9.43;7.72;;;;;;;;;;5071993;28;20413;-59
2024/03/18 06:01:51;;;;;;;11.20;8.50;;;;;;;;;;5074622;28;20059;-59
2024/03/18 06:04:18;;;;;;;9.63;7.28;;;;;;;;;;5065045;28;20052;-59
2024/03/18 06:06:46;;;;;;;12.52;8.10;;;;;;;;;;5072838;28;20057;-59
2024/03/18 06:09:13;;;;;;;14.23;8.65;;;;;;;;;;5074779;28;20052;-58
2024/03/18 06:11:40;;;;;;;11.35;8.85;;;;;;;;;;5073902;28;20048;-59
2024/03/18 06:14:08;;;;;;;8.68;7.05;;;;;;;;;;5073825;28;20055;-59
2024/03/18 06:16:36;;;;;;;7.88;6.57;;;;;;;;;;5061910;28;20056;-59
2024/03/18 06:19:04;;;;;;;9.93;6.40;;;;;;;;;;5055160;28;20048;-59
2024/03/18 06:21:39;;;;;;;7.70;5.53;;;;;;;;;;5054784;28;20057;-59
2024/03/18 06:24:17;;;;;;;8.13;5.28;;;;;;;;;;5073373;28;20405;-60
2024/03/18 06:26:43;;;;;;;6.28;5.40;;;;;;;;;;5066970;28;20060;-59
2024/03/18 06:29:10;;;;;;;5.68;4.95;;;;;;;;;;5055436;28;20057;-59
2024/03/18 06:31:37;;;;;;;6.22;4.85;;;;;;;;;;5054410;28;20053;-59
2024/03/18 06:34:05;;;;;;;7.15;5.60;;;;;;;;;;5054417;28;20064;-59
2024/03/18 06:36:31;;;;;;;8.13;5.10;;;;;;;;;;5054417;28;20508;-59
2024/03/18 06:38:58;;;;;;;6.63;5.63;;;;;;;;;;5054264;28;20425;-59
2024/03/18 06:41:27;;;;;;;6.35;5.15;;;;;;;;;;5061030;28;20048;-59
2024/03/18 06:43:53;;;;;;;7.50;5.55;;;;;;;;;;5068517;28;20474;-58
2024/03/18 06:46:20;;;;;;;7.28;5.28;;;;;;;;;;5054425;28;20076;-59
2024/03/18 06:48:50;;;;;;;7.38;6.20;;;;;;;;;;5077199;28;20045;-59
2024/03/18 06:51:17;;;;;;;7.05;5.88;;;;;;;;;;5064939;28;20045;-59
2024/03/18 06:53:43;;;;;;;7.35;5.55;;;;;;;;;;5054272;28;20056;-58
2024/03/18 06:56:11;;;;;;;8.13;6.18;;;;;;;;;;5064384;28;20056;-59
2024/03/18 06:58:39;;;;;;;7.80;6.25;;;;;;;;;;5071798;28;20052;-60
2024/03/18 07:01:08;;;;;;;8.23;6.32;;;;;;;;;;5068962;28;20458;-58
2024/03/18 07:03:37;;;;;;;8.07;5.93;;;;;;;;;;5057544;28;20508;-59
2024/03/18 07:06:04;;;;;;;9.18;6.40;;;;;;;;;;5054979;28;20061;-59
2024/03/18 07:08:31;;;;;;;9.73;6.20;;;;;;;;;;5065922;28;20044;-59
2024/03/18 07:10:58;;;;;;;8.43;6.45;;;;;;;;;;5074060;28;21071;-58
2024/03/18 07:13:25;;;;;;;8.15;6.40;;;;;;;;;;5070730;28;20055;-59
2024/03/18 07:15:54;;;;;;;9.93;6.28;;;;;;;;;;5065080;28;20049;-59
2024/03/18 07:18:21;;;;;;;7.72;5.82;;;;;;;;;;5066192;28;20071;-59
2024/03/18 07:20:48;;;;;;;10.43;7.32;;;;;;;;;;5064504;28;20045;-59
2024/03/18 07:23:16;;;;;;;8.23;6.50;;;;;;;;;;5064748;28;20064;-59
2024/03/18 07:25:43;;;;;;;8.82;6.00;;;;;;;;;;5059791;28;20052;-60
2024/03/18 07:28:10;;;;;;;8.45;6.68;;;;;;;;;;5078626;28;20055;-59
2024/03/18 07:30:38;;;;;;;8.07;6.55;;;;;;;;;;5071741;28;20512;-59
2024/03/18 07:33:06;;;;;;;9.00;6.95;;;;;;;;;;5065676;28;20060;-59
2024/03/18 07:35:33;;;;;;;8.23;6.47;;;;;;;;;;5070974;28;20056;-59
2024/03/18 07:38:00;;;;;;;8.75;6.55;;;;;;;;;;5071219;28;20053;-59
2024/03/18 07:40:27;;;;;;;8.00;6.43;;;;;;;;;;5070829;28;20149;-59
2024/03/18 07:42:54;;;;;;;9.13;7.00;;;;;;;;;;5072438;28;20060;-59
2024/03/18 07:45:21;;;;;;;9.13;7.22;;;;;;;;;;5069715;28;20059;-60
2024/03/18 07:47:47;;;;;;;9.55;6.95;;;;;;;;;;5068613;28;20071;-59
2024/03/18 07:50:16;;;;;;;9.68;7.88;;;;;;;;;;5066399;28;20490;-59
2024/03/18 07:52:43;;;;;;;9.63;7.45;;;;;;;;;;5070916;28;20063;-59
2024/03/18 07:55:10;;;;;;;10.77;8.82;;;;;;;;;;5066357;28;20052;-59
2024/03/18 07:57:37;;;;;;;12.77;9.48;;;;;;;;;;5070529;28;20053;-59
2024/03/18 08:00:06;;;;;;;13.27;9.20;;;;;;;;;;5060667;28;20098;-60
2024/03/18 08:02:33;;;;;;;14.60;9.43;;;;;;;;;;5066757;28;20409;-59
2024/03/18 08:05:00;;;;;;;9.82;8.75;;;;;;;;;;5067766;28;20052;-58
2024/03/18 08:07:28;;;;;;;11.75;9.57;;;;;;;;;;5062832;28;20056;-59
2024/03/18 08:09:56;;;;;;;11.77;8.90;;;;;;;;;;5062559;28;20604;-59
2024/03/18 08:12:23;;;;;;;10.00;8.55;;;;;;;;;;5062786;28;20063;-59
2024/03/18 08:14:50;;;;;;;11.60;9.30;;;;;;;;;;5066366;28;20040;-59
2024/03/18 08:17:17;;;;;;;11.57;9.02;;;;;;;;;;5069095;28;20072;-59
2024/03/18 08:19:44;;;;;;;11.70;8.27;;;;;;;;;;5066146;28;20155;-59
2024/03/18 08:22:13;;;;;;;10.68;8.38;;;;;;;;;;5066939;28;20052;-59
2024/03/18 08:24:42;;;;;;;11.77;8.23;;;;;;;;;;5068604;28;20052;-59
2024/03/18 08:27:09;;;;;;;10.20;7.75;;;;;;;;;;5064871;28;20374;-60
2024/03/18 08:29:36;;;;;;;10.55;8.20;;;;;;;;;;5069752;28;20543;-58
2024/03/18 08:32:03;;;;;;;9.60;7.82;;;;;;;;;;5059574;28;20056;-59
2024/03/18 08:34:30;;;;;;;10.32;8.00;;;;;;;;;;5063835;28;20402;-59
2024/03/18 08:36:57;;;;;;;9.23;7.75;;;;;;;;;;5068645;28;20067;-59
2024/03/18 08:39:24;;;;;;;9.80;7.47;;;;;;;;;;5070166;28;20060;-59
2024/03/18 08:41:52;;;;;;;8.55;6.97;;;;;;;;;;5068646;28;20060;-59
2024/03/18 08:44:19;;;;;;;9.15;7.93;;;;;;;;;;5076375;28;20049;-59
2024/03/18 08:46:45;;;;;;;8.50;7.22;;;;;;;;;;5066387;28;20059;-59
2024/03/18 08:49:13;;;;;;;8.82;7.15;;;;;;;;;;5063161;28;20158;-60
2024/03/18 08:51:40;;;;;;;8.38;7.35;;;;;;;;;;5057576;28;20056;-59
2024/03/18 08:54:07;;;;;;;7.82;6.80;;;;;;;;;;5070122;28;20056;-60
2024/03/18 08:56:34;;;;;;;9.20;7.63;;;;;;;;;;5049723;28;20056;-59
2024/03/18 08:59:02;;;;;;;9.52;7.18;;;;;;;;;;5046128;28;20056;-59
2024/03/18 09:01:29;;;;;;;7.88;6.72;;;;;;;;;;5045218;28;20056;-59
2024/03/18 09:03:56;;;;;;;7.45;6.63;;;;;;;;;;5050912;28;20380;-60
2024/03/18 09:06:23;;;;;;;7.40;6.15;;;;;;;;;;5061033;28;20060;-59
2024/03/18 09:08:50;;;;;;;6.32;5.70;;;;;;;;;;5057873;28;20049;-59
2024/03/18 09:11:17;;;;;;;6.40;5.63;;;;;;;;;;5041521;28;20061;-59
2024/03/18 09:13:43;;;;;;;7.43;6.30;;;;;;;;;;5066892;28;20053;-59
2024/03/18 09:16:11;;;;;;;6.30;5.25;;;;;;;;;;5056007;28;20393;-59
2024/03/18 09:18:38;;;;;;;7.60;5.80;;;;;;;;;;5050632;28;20052;-58
2024/03/18 09:21:05;;;;;;;8.13;6.03;;;;;;;;;;5059907;28;20056;-59
2024/03/18 09:23:32;;;;;;;7.63;6.18;;;;;;;;;;5053257;28;20056;-59
2024/03/18 09:25:59;;;;;;;6.95;5.95;;;;;;;;;;5054778;28;20047;-59
2024/03/18 09:28:27;;;;;;;7.35;5.50;;;;;;;;;;5050003;28;20071;-59
2024/03/18 09:31:00;;;;;;;7.68;5.15;;;;;;;;;;5035401;28;20053;-59
2024/03/18 09:33:29;;;;;;;6.00;5.20;;;;;;;;;;5057996;28;20057;-60
2024/03/18 09:35:56;;;;;;;6.45;5.32;;;;;;;;;;5044471;28;20045;-60
2024/03/18 09:38:23;;;;;;;6.25;5.57;;;;;;;;;;5061307;28;20055;-59
2024/03/18 09:40:50;;;;;;;6.93;5.72;;;;;;;;;;5057401;28;20056;-60
2024/03/18 09:43:17;;;;;;;7.63;5.53;;;;;;;;;;5053490;28;20466;-61
2024/03/18 09:45:44;;;;;;;7.00;6.10;;;;;;;;;;5052403;28;20055;-61
2024/03/18 09:48:14;;;;;;;9.23;7.38;;;;;;;;;;5072420;28;20075;-60
2024/03/18 09:50:43;;;;;;;7.38;6.15;;;;;;;;;;5078060;28;20056;-59
2024/03/18 09:53:10;;;;;;;7.70;5.38;;;;;;;;;;5079971;28;20052;-59
2024/03/18 09:55:37;;;;;;;8.27;6.07;;;;;;;;;;5071347;28;20417;-59
2024/03/18 09:58:06;;;;;;;7.35;5.53;;;;;;;;;;5075196;28;20064;-60
2024/03/18 10:00:33;;;;;;;7.55;5.97;;;;;;;;;;5071103;28;20052;-60
2024/03/18 10:03:01;;;;;;;7.57;6.45;;;;;;;;;;5068161;28;20056;-60
2024/03/18 10:05:29;;;;;;;7.70;6.35;;;;;;;;;;5080735;28;20413;-60
2024/03/18 10:07:57;;;;;;;7.50;6.28;;;;;;;;;;5086175;28;20135;-59
2024/03/18 10:10:25;;;;;;;10.30;6.60;;;;;;;;;;5090776;28;20056;-59
2024/03/18 10:12:52;;;;;;;7.13;5.93;;;;;;;;;;5085252;28;20052;-60
2024/03/18 10:15:19;;;;;;;8.07;6.43;;;;;;;;;;5059321;28;20068;-61
2024/03/18 10:17:46;;;;;;;7.75;6.00;;;;;;;;;;5076733;28;20048;-60
2024/03/18 10:20:17;;;;;;;6.88;6.15;;;;;;;;;;5091609;28;20056;-59
2024/03/18 10:22:46;;;;;;;8.20;6.55;;;;;;;;;;5073435;28;20508;-60
2024/03/18 10:25:16;;;;;;;7.30;6.05;;;;;;;;;;5062389;28;20049;-60
2024/03/18 10:27:44;;;;;;;7.28;6.00;;;;;;;;;;5070482;28;20052;-60
2024/03/18 10:30:13;;;;;;;7.32;5.88;;;;;;;;;;5081746;28;20075;-59
2024/03/18 10:32:41;;;;;;;6.32;5.65;;;;;;;;;;5092181;28;20051;-60
2024/03/18 10:35:08;;;;;;;7.78;5.72;;;;;;;;;;5082339;28;20060;-59
2024/03/18 10:37:35;;;;;;;7.00;6.10;;;;;;;;;;5080522;28;20056;-59
2024/03/18 10:40:06;;;;;;;7.68;5.55;;;;;;;;;;5080356;28;20059;-59
2024/03/18 10:42:34;;;;;;;6.93;5.72;;;;;;;;;;5092454;28;20080;-59
2024/03/18 10:45:07;;;;;;;5.80;5.10;;;;;;;;;;5077424;28;20402;-59
2024/03/18 10:47:34;;;;;;;6.65;5.60;;;;;;;;;;5086350;28;20052;-60
2024/03/18 10:50:02;;;;;;;5.70;5.20;;;;;;;;;;5085098;28;20413;-60
2024/03/18 10:52:30;;;;;;;6.22;5.38;;;;;;;;;;5081946;28;20442;-60
2024/03/18 10:54:58;;;;;;;7.50;5.60;;;;;;;;;;5066687;28;20336;-59
2024/03/18 10:57:25;;;;;;;5.43;4.72;;;;;;;;;;5087578;28;20078;-60
2024/03/18 10:59:53;;;;;;;7.25;4.93;;;;;;;;;;5072650;28;20053;-60
2024/03/18 11:02:26;;;;;;;7.25;4.93;;;;;;;;;;5077541;28;20060;-60
2024/03/18 11:04:56;;;;;;;5.65;4.80;;;;;;;;;;5064835;28;20048;-60
2024/03/18 11:07:29;;;;;;;7.32;4.93;;;;;;;;;;5072873;28;20051;-59
2024/03/18 11:10:02;;;;;;;9.10;5.32;;;;;;;;;;5077543;28;20422;-59
2024/03/18 11:12:31;;;;;;;5.88;4.25;;;;;;;;;;5079637;28;20053;-59
2024/03/18 11:15:07;;;;;;;6.75;4.60;;;;;;;;;;5067052;28;20064;-59
2024/03/18 11:17:40;;;;;;;7.38;5.15;;;;;;;;;;5070567;28;20159;-59
2024/03/18 11:20:12;;;;;;;5.13;4.63;;;;;;;;;;5075451;28;20105;-59
2024/03/18 11:22:45;;;;;;;6.05;4.85;;;;;;;;;;5090599;28;20056;-59
2024/03/18 11:25:14;;;;;;;6.35;5.07;;;;;;;;;;5078501;28;20056;-59
2024/03/18 11:27:47;;;;;;;7.53;5.47;;;;;;;;;;5074248;28;20056;-59
2024/03/18 11:30:24;;;;;;;7.75;6.10;;;;;;;;;;5071365;28;20060;-58
2024/03/18 11:32:51;;;;;;;7.88;3.38;;;;;;;;;;5070285;28;20047;-59
2024/03/18 11:35:18;;;;;;;4.65;3.38;;;;;;;;;;5082596;28;20378;-59
2024/03/18 11:37:45;;;;;;;4.38;2.90;;;;;;;;;;5068633;28;20051;-59
2024/03/18 11:40:14;;;;;;;5.10;2.83;;;;;;;;;;5079771;28;20052;-59
2024/03/18 11:42:41;;;;;;;5.65;2.65;;;;;;;;;;5085072;28;20441;-58
2024/03/18 11:45:15;;;;;;;4.90;2.92;;;;;;;;;;5080217;28;20063;-59
2024/03/18 11:47:43;;;;;;;5.97;2.85;;;;;;;;;;5086330;28;20075;-58
2024/03/18 11:50:12;;;;;;;3.55;2.78;;;;;;;;;;5064290;28;20083;-59
2024/03/18 11:52:39;;;;;;;5.38;2.55;;;;;;;;;;5086199;28;20251;-59
2024/03/18 11:55:10;;;;;;;4.80;2.78;;;;;;;;;;5061511;28;20101;-59
2024/03/18 11:57:37;;;;;;;4.88;2.45;;;;;;;;;;5075387;28;20053;-59
2024/03/18 12:00:11;;;;;;;5.68;2.70;;;;;;;;;;5070646;28;20059;-58
2024/03/18 12:02:39;;;;;;;4.32;2.08;;;;;;;;;;5077907;28;20056;-59
2024/03/18 12:05:08;;;;;;;4.82;2.20;;;;;;;;;;5076915;28;20055;-59
2024/03/18 12:07:34;;;;;;;6.40;2.67;;;;;;;;;;5076693;28;20409;-58
2024/03/18 12:10:04;;;;;;;4.45;2.50;;;;;;;;;;5077438;28;20052;-58
2024/03/18 12:12:31;;;;;;;3.05;2.28;;;;;;;;;;5060360;28;20060;-59
2024/03/18 12:14:58;;;;;;;4.72;2.25;;;;;;;;;;5074203;28;20057;-59
2024/03/18 12:17:26;;;;;;;5.80;2.22;;;;;;;;;;5078505;28;20045;-58
2024/03/18 12:19:54;;;;;;;3.78;2.20;;;;;;;;;;5086166;28;20056;-58
2024/03/18 12:22:25;;;;;;;3.90;2.10;;;;;;;;;;5075999;28;20079;-58
2024/03/18 12:30:25;;;;;;;2.83;1.80;;;;;;;;;;5091095;28;20047;-60
2024/03/18 12:32:52;;;;;;;3.75;1.70;;;;;;;;;;5074771;28;20049;-59
2024/03/18 12:35:20;;;;;;;3.17;2.03;;;;;;;;;;5081966;28;20051;-59
2024/03/18 12:37:49;;;;;;;4.35;2.28;;;;;;;;;;5077008;28;20067;-59
2024/03/18 12:40:17;;;;;;;4.15;2.30;;;;;;;;;;5084766;28;20067;-58
2024/03/18 12:42:43;;;;;;;5.78;2.08;;;;;;;;;;5087248;28;20067;-58
2024/03/18 12:45:12;;;;;;;4.95;2.40;;;;;;;;;;5076151;28;20052;-59
2024/03/18 12:47:38;;;;;;;3.50;2.40;;;;;;;;;;5080824;28;20052;-59
2024/03/18 12:50:06;;;;;;;5.63;2.72;;;;;;;;;;5081220;28;20056;-59
2024/03/18 12:52:32;;;;;;;4.68;3.10;;;;;;;;;;5076664;28;20049;-59
2024/03/18 12:55:01;;;;;;;6.20;3.72;;;;;;;;;;5066925;28;20413;-58
2024/03/18 12:57:28;;;;;;;6.15;4.15;;;;;;;;;;5078062;28;20059;-59
2024/03/18 12:59:55;;;;;;;5.22;4.22;;;;;;;;;;5080102;28;20052;-59
2024/03/18 13:02:22;;;;;;;5.72;3.85;;;;;;;;;;5082107;28;20074;-58
2024/03/18 13:04:49;;;;;;;5.68;4.05;;;;;;;;;;5074870;28;20056;-58
2024/03/18 13:07:16;;;;;;;5.82;3.72;;;;;;;;;;5077201;28;20477;-58
2024/03/18 13:09:43;;;;;;;5.03;3.60;;;;;;;;;;5063739;28;20426;-59
2024/03/18 13:12:12;;;;;;;7.28;3.53;;;;;;;;;;5069320;28;20060;-58
2024/03/18 13:14:40;;;;;;;4.32;3.15;;;;;;;;;;5078170;28;20057;-59
2024/03/18 13:17:07;;;;;;;4.60;3.70;;;;;;;;;;5084476;28;20048;-59
2024/03/18 13:19:34;;;;;;;5.47;3.85;;;;;;;;;;5068416;28;20052;-59
2024/03/18 13:22:00;;;;;;;8.60;3.97;;;;;;;;;;5089390;28;20052;-58
2024/03/18 13:24:29;;;;;;;6.30;4.35;;;;;;;;;;5082975;28;20517;-58
2024/03/18 13:26:57;;;;;;;8.20;4.25;;;;;;;;;;5077770;28;20052;-59
2024/03/18 13:29:31;;;;;;;4.95;3.63;;;;;;;;;;5086896;28;20064;-58
2024/03/18 13:31:58;;;;;;;6.18;3.17;;;;;;;;;;5084759;28;20055;-59
2024/03/18 13:34:24;;;;;;;4.53;2.88;;;;;;;;;;5088920;28;20485;-59
2024/03/18 13:36:51;;;;;;;6.90;3.05;;;;;;;;;;5081406;28;20067;-59
2024/03/18 13:39:19;;;;;;;7.13;3.40;;;;;;;;;;5085970;28;20064;-59
2024/03/18 13:41:46;;;;;;;5.38;2.75;;;;;;;;;;5071605;28;20075;-58
2024/03/18 13:44:12;;;;;;;3.13;2.30;;;;;;;;;;5075085;28;20067;-58
2024/03/18 13:46:41;;;;;;;5.13;2.80;;;;;;;;;;5068236;28;20052;-58
2024/03/18 13:49:07;;;;;;;4.47;2.65;;;;;;;;;;5079768;28;20060;-58
2024/03/18 13:51:34;;;;;;;5.30;2.97;;;;;;;;;;5077049;28;20056;-59
2024/03/18 13:54:01;;;;;;;6.07;2.60;;;;;;;;;;5093375;28;20484;-58
2024/03/18 13:56:28;;;;;;;4.90;2.60;;;;;;;;;;5080826;28;20405;-58
2024/03/18 13:58:55;;;;;;;4.82;2.63;;;;;;;;;;5078402;28;20172;-59
2024/03/18 14:01:22;;;;;;;5.88;2.63;;;;;;;;;;5079349;28;20174;-59
2024/03/18 14:03:50;;;;;;;6.22;3.30;;;;;;;;;;5073564;28;20071;-59
2024/03/18 14:06:19;;;;;;;7.13;3.20;;;;;;;;;;5081405;28;20060;-58
2024/03/18 14:08:46;;;;;;;6.68;3.00;;;;;;;;;;5081318;28;20060;-58
2024/03/18 14:11:13;;;;;;;7.00;3.15;;;;;;;;;;5074671;28;20079;-58
2024/03/18 14:13:40;;;;;;;7.57;3.63;;;;;;;;;;5069294;28;20048;-59
2024/03/18 14:16:09;;;;;;;7.75;4.65;;;;;;;;;;5080037;28;20059;-58
2024/03/18 14:18:36;;;;;;;9.60;5.68;;;;;;;;;;5086174;28;20374;-58
2024/03/18 14:21:05;;;;;;;7.68;5.50;;;;;;;;;;5071960;28;20398;-58
2024/03/18 14:23:32;;;;;;;8.60;5.68;;;;;;;;;;5080610;28;20068;-58
2024/03/18 14:25:59;;;;;;;9.23;5.75;;;;;;;;;;5089225;28;20059;-59
2024/03/18 14:28:26;;;;;;;8.82;6.03;;;;;;;;;;5071459;28;20044;-58
2024/03/18 14:30:53;;;;;;;9.45;6.68;;;;;;;;;;5077375;28;20056;-58
2024/03/18 14:33:20;;;;;;;8.48;6.53;;;;;;;;;;5085860;28;20060;-59
2024/03/18 14:35:47;;;;;;;10.73;7.07;;;;;;;;;;5075069;28;20056;-57
2024/03/18 14:38:15;;;;;;;10.15;6.35;;;;;;;;;;5088733;28;20386;-58
2024/03/18 14:40:42;;;;;;;9.43;6.78;;;;;;;;;;5078513;28;20059;-58